Time;durP1;ratioP1;P1;durP2;ratioP2;P2;SDS_P1;SDS_P2;PMS_P1;PMS_P2;Temp;Humidity;BMP_temperature;BMP_pressure;BME280_temperature;BME280_humidity;BME280_pressure;Samples;Min_cycle;Max_cycle;Signal;HPM_P1;HPM_P2
2023/05/04 00:00:22;;;;;;;6.17;4.17;;;5.90;99.90;;;;;;2071039;28;20238;-73
2023/05/04 00:01:23;;;;;;;5.35;4.05;;;5.90;99.90;;;;;;2083897;28;20231;-73
2023/05/04 00:02:24;;;;;;;5.78;4.38;;;5.80;99.90;;;;;;2086350;28;20299;-73
2023/05/04 00:03:25;;;;;;;4.90;3.80;;;5.80;99.90;;;;;;2095565;28;20230;-72
2023/05/04 00:04:26;;;;;;;7.95;4.75;;;5.80;99.90;;;;;;2078156;28;20284;-73
2023/05/04 00:05:27;;;;;;;7.73;4.00;;;5.90;99.90;;;;;;2086901;28;20223;-73
2023/05/04 00:06:28;;;;;;;6.37;4.50;;;5.80;99.90;;;;;;2095168;28;20253;-74
2023/05/04 00:07:28;;;;;;;5.90;4.57;;;5.70;99.90;;;;;;2095451;28;20230;-73
2023/05/04 00:08:30;;;;;;;8.00;4.20;;;5.80;99.90;;;;;;2079310;28;20665;-73
2023/05/04 00:09:31;;;;;;;6.93;4.57;;;5.80;99.90;;;;;;2083511;28;20228;-74
2023/05/04 00:10:32;;;;;;;5.78;4.50;;;6.80;99.90;;;;;;2078675;28;20240;-74
2023/05/04 00:11:33;;;;;;;5.70;4.50;;;5.80;99.90;;;;;;2078889;28;20654;-74
2023/05/04 00:12:33;;;;;;;6.18;4.13;;;5.80;99.90;;;;;;2095489;28;20227;-74
2023/05/04 00:13:34;;;;;;;5.70;4.53;;;5.80;99.90;;;;;;2103669;28;20230;-74
2023/05/04 00:14:36;;;;;;;5.97;4.82;;;7.10;99.90;;;;;;2103570;28;20325;-74
2023/05/04 00:15:36;;;;;;;5.53;4.35;;;5.80;99.90;;;;;;2095680;28;20234;-74
2023/05/04 00:16:38;;;;;;;7.40;4.80;;;5.80;99.90;;;;;;2103997;28;20230;-74
2023/05/04 00:17:38;;;;;;;7.35;4.88;;;5.80;99.90;;;;;;2089147;28;20293;-74
2023/05/04 00:18:39;;;;;;;6.03;5.03;;;5.90;99.90;;;;;;2094450;28;20748;-74
2023/05/04 00:19:41;;;;;;;6.17;4.83;;;5.70;99.90;;;;;;2095367;28;20245;-74
2023/05/04 00:20:41;;;;;;;6.45;4.32;;;5.80;99.90;;;;;;2088358;28;20273;-74
2023/05/04 00:21:42;;;;;;;10.23;4.90;;;5.80;99.90;;;;;;2086476;28;20232;-74
2023/05/04 00:22:43;;;;;;;7.87;5.03;;;5.70;99.90;;;;;;2087060;28;20797;-74
2023/05/04 00:23:45;;;;;;;8.30;5.53;;;5.70;99.90;;;;;;2091656;28;20282;-74
2023/05/04 00:24:46;;;;;;;6.88;5.40;;;5.80;99.90;;;;;;2092046;28;20238;-74
2023/05/04 00:25:46;;;;;;;7.97;4.75;;;5.70;99.90;;;;;;2095423;28;20261;-74
2023/05/04 00:26:47;;;;;;;6.40;4.80;;;5.70;99.90;;;;;;2090975;28;20794;-74
2023/05/04 00:27:48;;;;;;;6.93;4.53;;;5.70;99.90;;;;;;2091371;28;20794;-74
2023/05/04 00:28:49;;;;;;;7.07;5.07;;;5.70;99.90;;;;;;2086878;28;20229;-74
2023/05/04 00:29:49;;;;;;;7.90;5.03;;;5.70;99.90;;;;;;2078196;28;20674;-74
2023/05/04 00:30:53;;;;;;;8.40;4.70;;;5.70;99.90;;;;;;2094760;28;20628;-74
2023/05/04 00:31:53;;;;;;;7.53;5.00;;;5.70;99.90;;;;;;2095378;28;20341;-74
2023/05/04 00:32:54;;;;;;;8.17;5.60;;;5.80;99.90;;;;;;2095139;28;20246;-74
2023/05/04 00:33:55;;;;;;;7.80;5.60;;;5.80;99.90;;;;;;2074805;28;20290;-74
2023/05/04 00:34:56;;;;;;;7.60;4.90;;;5.80;99.90;;;;;;2078631;28;20236;-74
2023/05/04 00:35:57;;;;;;;7.13;4.90;;;5.80;99.90;;;;;;2075530;28;20260;-73
2023/05/04 00:36:58;;;;;;;7.00;4.95;;;5.80;99.90;;;;;;2086981;28;20277;-74
2023/05/04 00:38:02;;;;;;;7.50;5.32;;;6.20;99.90;;;;;;2090091;28;20314;-74
2023/05/04 00:39:03;;;;;;;8.10;5.32;;;5.80;99.90;;;;;;2077865;28;20637;-75
2023/05/04 00:40:04;;;;;;;8.80;4.80;;;5.80;99.90;;;;;;2084844;28;20234;-74
2023/05/04 00:41:05;;;;;;;6.43;4.80;;;5.70;99.90;;;;;;2093231;28;20614;-74
2023/05/04 00:42:06;;;;;;;6.50;4.77;;;6.00;99.90;;;;;;2095354;28;20221;-74
2023/05/04 00:43:07;;;;;;;6.18;4.57;;;5.70;99.90;;;;;;2095381;28;20195;-74
2023/05/04 00:44:08;;;;;;;6.72;4.35;;;5.60;99.90;;;;;;2087072;28;20279;-75
2023/05/04 00:45:09;;;;;;;6.30;4.63;;;5.70;99.90;;;;;;2078752;28;20188;-74
2023/05/04 00:46:11;;;;;;;7.40;4.40;;;5.70;99.90;;;;;;2087114;28;20221;-74
2023/05/04 00:47:12;;;;;;;5.28;4.20;;;5.70;99.90;;;;;;2086979;28;20188;-74
2023/05/04 00:48:13;;;;;;;5.93;4.53;;;5.70;99.90;;;;;;2075277;28;20939;-74
2023/05/04 00:49:14;;;;;;;6.83;4.80;;;5.60;99.90;;;;;;2075013;28;20231;-74
2023/05/04 00:50:15;;;;;;;7.82;4.78;;;5.60;99.90;;;;;;2082209;28;20433;-74
2023/05/04 00:51:19;;;;;;;7.00;5.10;;;5.60;99.90;;;;;;2083157;28;20192;-74
2023/05/04 00:52:21;;;;;;;7.30;5.30;;;5.50;99.90;;;;;;2087714;28;20188;-74
2023/05/04 00:53:21;;;;;;;6.82;4.50;;;5.50;99.90;;;;;;2086858;28;20239;-74
2023/05/04 00:54:23;;;;;;;7.13;4.73;;;5.50;99.90;;;;;;2084137;28;21248;-74
2023/05/04 00:55:23;;;;;;;7.75;5.53;;;5.40;99.90;;;;;;2079153;28;20742;-74
2023/05/04 00:56:25;;;;;;;7.50;5.13;;;5.50;99.90;;;;;;2087306;28;20228;-74
2023/05/04 00:57:26;;;;;;;9.65;5.75;;;5.50;99.90;;;;;;2086785;28;20236;-74
2023/05/04 00:58:29;;;;;;;9.15;5.40;;;5.50;99.90;;;;;;2095580;28;20257;-74
2023/05/04 00:59:31;;;;;;;7.38;5.50;;;5.50;99.90;;;;;;2091074;28;20791;-73
2023/05/04 01:00:31;;;;;;;6.95;4.93;;;5.60;99.90;;;;;;2087016;28;20231;-73
2023/05/04 01:01:32;;;;;;;8.87;5.57;;;5.40;99.90;;;;;;2092368;28;20239;-75
2023/05/04 01:02:35;;;;;;;10.37;5.57;;;5.40;99.90;;;;;;2094928;28;20230;-74
2023/05/04 01:03:35;;;;;;;7.60;5.60;;;5.40;99.90;;;;;;2086155;28;20912;-74
2023/05/04 01:04:37;;;;;;;9.25;5.80;;;5.30;99.90;;;;;;2070224;28;20742;-74
2023/05/04 01:05:53;;;;;;;12.77;5.30;;;5.30;99.90;;;;;;2092557;28;20261;-74
2023/05/04 01:07:19;;;;;;;5.82;4.30;;;5.30;99.90;;;;;;2082403;28;20315;-74
2023/05/04 01:08:30;;;;;;;6.40;4.78;;;5.50;99.90;;;;;;2084510;28;20217;-74
2023/05/04 01:09:47;;;;;;;6.05;4.35;;;5.40;99.90;;;;;;2095073;28;20234;-74
2023/05/04 01:11:03;;;;;;;5.75;4.50;;;5.30;99.90;;;;;;2091323;28;20234;-74
2023/05/04 01:12:24;;;;;;;6.70;4.47;;;5.40;99.90;;;;;;2090203;28;20286;-75
2023/05/04 01:13:28;;;;;;;5.95;4.00;;;5.40;99.90;;;;;;2091421;28;20690;-73
2023/05/04 01:14:30;;;;;;;6.28;4.78;;;5.30;99.90;;;;;;2091221;28;20241;-73
2023/05/04 01:15:32;;;;;;;7.35;4.50;;;5.30;99.90;;;;;;2087787;28;20257;-74
2023/05/04 01:16:33;;;;;;;7.32;4.55;;;5.30;99.90;;;;;;2086568;28;20715;-74
2023/05/04 01:17:34;;;;;;;5.50;4.43;;;5.30;99.90;;;;;;2090845;28;20292;-74
2023/05/04 01:18:34;;;;;;;9.13;5.30;;;5.30;99.90;;;;;;2090346;28;20642;-74
2023/05/04 01:19:35;;;;;;;6.83;4.43;;;5.20;99.90;;;;;;2082715;28;20314;-74
2023/05/04 01:20:36;;;;;;;7.23;4.77;;;5.10;99.90;;;;;;2086134;28;20231;-74
2023/05/04 01:21:37;;;;;;;6.30;4.73;;;5.10;99.90;;;;;;2091446;28;20233;-74
2023/05/04 01:22:38;;;;;;;7.25;4.82;;;5.00;99.90;;;;;;2084200;28;20254;-74
2023/05/04 01:23:39;;;;;;;7.17;4.67;;;5.00;99.90;;;;;;2086871;28;20289;-74
2023/05/04 01:24:40;;;;;;;8.10;4.80;;;5.00;99.90;;;;;;2084668;28;20256;-74
2023/05/04 01:25:55;;;;;;;7.00;4.87;;;5.00;99.90;;;;;;2087201;28;20239;-74
2023/05/04 01:27:55;;;;;;;7.13;4.85;;;5.00;99.90;;;;;;2094597;28;20605;-74
2023/05/04 01:29:13;;;;;;;9.18;4.72;;;5.00;99.90;;;;;;2090934;28;20750;-74
2023/05/04 01:30:23;;;;;;;9.60;5.30;;;4.90;99.90;;;;;;2087464;28;20223;-74
2023/05/04 01:31:26;;;;;;;5.15;4.22;;;4.90;99.90;;;;;;2079926;28;20237;-75
2023/05/04 01:32:30;;;;;;;6.82;5.00;;;4.90;99.90;;;;;;2079493;28;20281;-73
2023/05/04 01:33:32;;;;;;;7.72;5.82;;;5.00;99.90;;;;;;2086909;28;20231;-74
2023/05/04 01:34:35;;;;;;;7.45;4.95;;;5.00;99.90;;;;;;2078875;28;20822;-74
2023/05/04 01:35:37;;;;;;;8.45;5.53;;;5.00;99.90;;;;;;2091971;28;20233;-73
2023/05/04 01:36:41;;;;;;;9.75;4.78;;;5.00;99.90;;;;;;2091389;28;20223;-74
2023/05/04 01:37:42;;;;;;;9.60;5.07;;;4.90;99.90;;;;;;2091344;28;20669;-73
2023/05/04 01:38:43;;;;;;;8.00;5.40;;;4.90;99.90;;;;;;2091346;28;20328;-73
2023/05/04 01:39:43;;;;;;;9.17;5.30;;;4.90;99.90;;;;;;2094932;28;20234;-73
2023/05/04 01:40:44;;;;;;;9.97;6.07;;;4.90;99.90;;;;;;2082549;28;20273;-72
2023/05/04 01:41:45;;;;;;;10.80;6.05;;;4.90;99.90;;;;;;2084372;28;20318;-73
2023/05/04 01:42:46;;;;;;;9.70;6.07;;;4.90;99.90;;;;;;2084634;28;20236;-73
2023/05/04 01:43:47;;;;;;;7.43;5.00;;;4.90;99.90;;;;;;2087223;28;20235;-73
2023/05/04 01:44:47;;;;;;;7.60;5.10;;;4.90;99.90;;;;;;2088780;28;20277;-73
2023/05/04 01:45:48;;;;;;;12.57;5.73;;;4.90;99.90;;;;;;2088678;28;20224;-72
2023/05/04 01:46:49;;;;;;;9.80;5.83;;;4.90;99.90;;;;;;2095931;28;20272;-73
2023/05/04 01:47:51;;;;;;;7.53;5.70;;;4.90;99.90;;;;;;2088735;28;20605;-73
2023/05/04 01:48:52;;;;;;;9.75;5.68;;;4.90;99.90;;;;;;2081452;28;20276;-73
2023/05/04 01:49:53;;;;;;;10.83;5.90;;;4.90;99.90;;;;;;2088688;28;20234;-73
2023/05/04 01:50:54;;;;;;;12.05;6.72;;;4.90;99.90;;;;;;2097081;28;20256;-73
2023/05/04 01:51:55;;;;;;;8.60;6.20;;;5.00;99.90;;;;;;2096765;28;20226;-72
2023/05/04 01:52:55;;;;;;;11.40;6.67;;;4.90;99.90;;;;;;2088206;28;20629;-73
2023/05/04 01:53:56;;;;;;;10.20;6.23;;;5.60;99.90;;;;;;2088372;28;20261;-73
2023/05/04 01:54:57;;;;;;;10.73;6.83;;;4.90;99.90;;;;;;2088111;28;20282;-73
2023/05/04 01:55:58;;;;;;;13.00;7.30;;;4.90;99.90;;;;;;2088196;28;20231;-74
2023/05/04 01:56:58;;;;;;;9.93;6.70;;;5.00;99.90;;;;;;2096384;28;20825;-73
2023/05/04 01:57:59;;;;;;;11.00;6.77;;;5.00;99.90;;;;;;2096177;28;20229;-73
2023/05/04 01:59:00;;;;;;;12.10;6.77;;;4.90;99.90;;;;;;2088456;28;20230;-73
2023/05/04 02:00:00;;;;;;;10.17;6.17;;;4.90;99.90;;;;;;2089504;28;20257;-76
2023/05/04 02:01:01;;;;;;;11.17;6.70;;;5.00;99.90;;;;;;2088834;28;20196;-73
2023/05/04 02:02:02;;;;;;;9.13;5.80;;;5.00;99.90;;;;;;2095552;28;20635;-73
2023/05/04 02:03:03;;;;;;;9.60;5.67;;;5.00;99.90;;;;;;2096461;28;20248;-74
2023/05/04 02:04:04;;;;;;;8.90;5.97;;;5.00;99.90;;;;;;2104754;28;20225;-74
2023/05/04 02:05:05;;;;;;;9.43;6.23;;;5.00;99.90;;;;;;2088117;28;20199;-75
2023/05/04 02:06:06;;;;;;;10.80;6.30;;;5.00;99.90;;;;;;2087655;28;20437;-73
2023/05/04 02:07:07;;;;;;;9.88;5.78;;;5.00;99.90;;;;;;2093451;28;20193;-73
2023/05/04 02:08:08;;;;;;;9.02;6.10;;;4.90;99.90;;;;;;2091960;28;20198;-75
2023/05/04 02:09:08;;;;;;;8.90;5.77;;;4.90;99.90;;;;;;2093581;28;20182;-74
2023/05/04 02:10:10;;;;;;;9.53;6.10;;;4.90;99.90;;;;;;2096310;28;20186;-74
2023/05/04 02:11:13;;;;;;;11.05;6.40;;;4.90;99.90;;;;;;2088006;28;20659;-74
2023/05/04 02:12:14;;;;;;;10.40;6.05;;;4.90;99.90;;;;;;2088242;28;20237;-74
2023/05/04 02:13:14;;;;;;;10.87;5.87;;;4.90;99.90;;;;;;2096455;28;20303;-74
2023/05/04 02:14:15;;;;;;;8.40;5.33;;;4.90;99.90;;;;;;2103904;28;20251;-75
2023/05/04 02:15:16;;;;;;;13.60;6.30;;;4.90;99.90;;;;;;2096427;28;20191;-74
2023/05/04 02:16:17;;;;;;;12.27;6.13;;;4.80;99.90;;;;;;2070865;28;20993;-74
2023/05/04 02:17:17;;;;;;;11.93;6.73;;;4.80;99.90;;;;;;2087707;28;20281;-73
2023/05/04 02:18:18;;;;;;;11.90;6.33;;;4.80;99.90;;;;;;2096298;28;20220;-73
2023/05/04 02:19:19;;;;;;;13.83;7.40;;;4.90;99.90;;;;;;2083951;28;20306;-74
2023/05/04 02:20:19;;;;;;;11.33;6.50;;;4.70;99.90;;;;;;2087974;28;20230;-74
2023/05/04 02:21:20;;;;;;;14.40;6.50;;;4.70;99.90;;;;;;2096302;28;21261;-74
2023/05/04 02:22:21;;;;;;;10.30;6.40;;;4.70;99.90;;;;;;2079755;28;20234;-74
2023/05/04 02:23:22;;;;;;;14.37;6.97;;;4.70;99.90;;;;;;2079785;28;20284;-73
2023/05/04 02:24:23;;;;;;;13.98;7.50;;;4.70;99.90;;;;;;2096592;28;20226;-73
2023/05/04 02:25:24;;;;;;;9.47;5.83;;;4.70;99.90;;;;;;2088321;28;20235;-73
2023/05/04 02:26:25;;;;;;;13.93;7.57;;;4.60;99.90;;;;;;2096627;28;20233;-73
2023/05/04 02:27:26;;;;;;;14.63;7.23;;;4.70;99.90;;;;;;2084993;28;20739;-73
2023/05/04 02:28:27;;;;;;;17.53;9.10;;;4.60;99.90;;;;;;2090074;28;20244;-73
2023/05/04 02:29:28;;;;;;;14.90;9.02;;;4.60;99.90;;;;;;2092312;28;20237;-73
2023/05/04 02:30:28;;;;;;;14.83;8.33;;;4.60;99.90;;;;;;2088809;28;20630;-73
2023/05/04 02:31:32;;;;;;;14.40;8.07;;;4.60;99.90;;;;;;2087362;28;20238;-74
2023/05/04 02:32:33;;;;;;;16.20;8.15;;;4.60;99.90;;;;;;2092235;28;20226;-73
2023/05/04 02:33:34;;;;;;;13.03;7.57;;;4.60;99.90;;;;;;2096220;28;20709;-73
2023/05/04 02:34:35;;;;;;;16.23;8.03;;;4.60;99.90;;;;;;2087920;28;20255;-73
2023/05/04 02:35:36;;;;;;;15.43;7.22;;;4.50;99.90;;;;;;2085660;28;20220;-73
2023/05/04 02:36:37;;;;;;;17.30;8.27;;;4.50;99.90;;;;;;2087930;28;20236;-73
2023/05/04 02:37:37;;;;;;;10.80;6.93;;;4.50;99.90;;;;;;2079471;28;20227;-73
2023/05/04 02:38:38;;;;;;;14.40;6.70;;;4.60;99.90;;;;;;2078875;28;20269;-72
2023/05/04 02:39:39;;;;;;;15.53;7.43;;;4.60;99.90;;;;;;2087860;28;20226;-73
2023/05/04 02:40:40;;;;;;;12.50;7.30;;;4.50;99.90;;;;;;2068361;28;20326;-72
2023/05/04 02:41:41;;;;;;;15.18;7.57;;;4.60;99.90;;;;;;2081213;28;20227;-72
2023/05/04 02:42:42;;;;;;;17.73;7.28;;;4.60;99.90;;;;;;2096066;28;20318;-72
2023/05/04 02:43:44;;;;;;;13.37;7.23;;;4.60;99.90;;;;;;2095898;28;20594;-73
2023/05/04 02:44:44;;;;;;;13.27;7.88;;;4.60;99.90;;;;;;2096166;28;20234;-72
2023/05/04 02:45:45;;;;;;;15.50;8.23;;;4.50;99.90;;;;;;2092202;28;20659;-72
2023/05/04 02:46:46;;;;;;;13.30;7.77;;;4.40;99.90;;;;;;2083492;28;20310;-72
2023/05/04 02:47:46;;;;;;;19.67;8.57;;;4.50;99.90;;;;;;2088159;28;20226;-74
2023/05/04 02:48:48;;;;;;;15.73;7.60;;;4.40;99.90;;;;;;2079631;28;20722;-73
2023/05/04 02:49:48;;;;;;;13.20;7.72;;;4.50;99.90;;;;;;2079861;28;20283;-73
2023/05/04 02:50:51;;;;;;;9.73;6.33;;;4.50;99.90;;;;;;2095850;28;20336;-74
2023/05/04 02:51:53;;;;;;;14.38;7.90;;;4.40;99.90;;;;;;2096208;28;20560;-73
2023/05/04 02:52:54;;;;;;;10.85;7.05;;;4.40;99.90;;;;;;2087315;28;20235;-73
2023/05/04 02:53:55;;;;;;;14.87;7.50;;;4.40;99.90;;;;;;2079709;28;20745;-73
2023/05/04 02:54:56;;;;;;;13.90;7.82;;;4.50;99.90;;;;;;2078895;28;20228;-73
2023/05/04 02:55:56;;;;;;;17.90;8.73;;;4.50;99.90;;;;;;2095685;28;20257;-73
2023/05/04 02:56:57;;;;;;;12.93;8.13;;;4.50;99.90;;;;;;2096007;28;20234;-73
2023/05/04 02:57:58;;;;;;;15.93;8.90;;;4.50;99.90;;;;;;2087833;28;20226;-73
2023/05/04 02:59:00;;;;;;;16.23;8.53;;;4.50;99.90;;;;;;2071392;28;20244;-73
2023/05/04 03:00:00;;;;;;;17.23;9.15;;;4.50;99.90;;;;;;2078205;28;20342;-73
2023/05/04 03:01:01;;;;;;;17.17;8.80;;;4.40;99.90;;;;;;2088942;28;20269;-74
2023/05/04 03:02:02;;;;;;;15.03;8.70;;;4.40;99.90;;;;;;2091700;28;20187;-74
2023/05/04 03:03:03;;;;;;;16.35;8.90;;;4.50;99.90;;;;;;2088282;28;20183;-73
2023/05/04 03:04:05;;;;;;;13.37;8.23;;;4.40;99.90;;;;;;2092936;28;20308;-73
2023/05/04 03:05:06;;;;;;;12.55;7.90;;;4.50;99.90;;;;;;2095898;28;20295;-74
2023/05/04 03:06:07;;;;;;;13.63;8.35;;;4.50;99.90;;;;;;2085111;28;20295;-73
2023/05/04 03:07:08;;;;;;;13.30;8.57;;;4.50;99.90;;;;;;2083591;28;20666;-74
2023/05/04 03:08:09;;;;;;;12.93;8.30;;;4.50;99.90;;;;;;2094711;28;20190;-74
2023/05/04 03:09:11;;;;;;;15.10;9.10;;;4.50;99.90;;;;;;2082576;28;20198;-73
2023/05/04 03:10:11;;;;;;;17.13;8.50;;;4.60;99.90;;;;;;2091811;28;20548;-73
2023/05/04 03:11:12;;;;;;;14.23;8.17;;;4.60;99.90;;;;;;2095784;28;20285;-73
2023/05/04 03:12:14;;;;;;;13.85;9.10;;;4.60;99.90;;;;;;2087397;28;20195;-73
2023/05/04 03:13:15;;;;;;;15.82;9.20;;;4.60;99.90;;;;;;2080804;28;20227;-73
2023/05/04 03:14:16;;;;;;;14.00;8.80;;;4.50;99.90;;;;;;2091785;28;20195;-74
2023/05/04 03:15:18;;;;;;;14.43;9.80;;;4.50;99.90;;;;;;2083580;28;20211;-73
2023/05/04 03:16:19;;;;;;;17.38;9.52;;;4.50;99.90;;;;;;2083725;28;20195;-73
2023/05/04 03:17:20;;;;;;;14.70;8.75;;;4.50;99.90;;;;;;2090952;28;20206;-73
2023/05/04 03:18:21;;;;;;;13.88;8.63;;;4.50;99.90;;;;;;2093591;28;20800;-73
2023/05/04 03:19:22;;;;;;;16.17;10.07;;;4.50;99.90;;;;;;2088179;28;20243;-73
2023/05/04 03:20:23;;;;;;;13.17;8.70;;;4.40;99.90;;;;;;2089081;28;20730;-73
2023/05/04 03:21:25;;;;;;;15.80;8.82;;;4.50;99.90;;;;;;2083502;28;20227;-73
2023/05/04 03:22:27;;;;;;;13.90;8.00;;;4.50;99.90;;;;;;2084042;28;20300;-73
2023/05/04 03:23:29;;;;;;;14.05;7.65;;;4.50;99.90;;;;;;2091447;28;20317;-73
2023/05/04 03:24:30;;;;;;;11.18;7.25;;;4.50;99.90;;;;;;2087894;28;20241;-73
2023/05/04 03:25:31;;;;;;;14.50;7.80;;;4.50;99.90;;;;;;2087344;28;20224;-73
2023/05/04 03:26:32;;;;;;;18.33;8.35;;;4.50;99.90;;;;;;2087726;28;20593;-73
2023/05/04 03:27:34;;;;;;;16.52;9.40;;;4.40;99.90;;;;;;2077982;28;20711;-73
2023/05/04 03:28:35;;;;;;;14.88;9.15;;;4.40;99.90;;;;;;2074992;28;20734;-73
2023/05/04 03:29:35;;;;;;;14.33;9.07;;;4.40;99.90;;;;;;2082944;28;20321;-73
2023/05/04 03:30:37;;;;;;;15.73;9.03;;;4.40;99.90;;;;;;2085278;28;21050;-73
2023/05/04 03:31:42;;;;;;;16.02;8.95;;;4.40;99.90;;;;;;2079564;28;20231;-73
2023/05/04 03:32:44;;;;;;;15.82;7.97;;;4.40;99.90;;;;;;2084748;28;20231;-73
2023/05/04 03:33:44;;;;;;;15.13;8.45;;;4.40;99.90;;;;;;2087784;28;20255;-73
2023/05/04 03:34:45;;;;;;;14.33;8.80;;;4.40;99.90;;;;;;2078452;28;20608;-73
2023/05/04 03:35:46;;;;;;;15.60;8.03;;;4.40;99.90;;;;;;2079269;28;20319;-73
2023/05/04 03:36:47;;;;;;;16.33;9.17;;;4.40;99.90;;;;;;2072893;28;20236;-73
2023/05/04 03:37:48;;;;;;;13.82;8.77;;;4.40;99.90;;;;;;2083535;28;20224;-73
2023/05/04 03:38:50;;;;;;;15.53;8.70;;;4.50;99.90;;;;;;2090790;28;20237;-73
2023/05/04 03:39:51;;;;;;;14.43;8.23;;;4.40;99.90;;;;;;2074964;28;20232;-73
2023/05/04 03:40:51;;;;;;;13.37;8.13;;;4.40;99.90;;;;;;2089765;28;20231;-73
2023/05/04 03:41:52;;;;;;;18.10;8.63;;;4.50;99.90;;;;;;2090238;28;20609;-73
2023/05/04 03:42:53;;;;;;;13.43;8.27;;;4.60;99.90;;;;;;2091658;28;20314;-73
2023/05/04 03:43:55;;;;;;;16.73;8.55;;;4.40;99.90;;;;;;2080830;28;20240;-73
2023/05/04 03:44:56;;;;;;;12.32;7.95;;;4.40;99.90;;;;;;2091684;28;20227;-73
2023/05/04 03:45:56;;;;;;;11.97;7.57;;;4.40;99.90;;;;;;2095076;28;20238;-73
2023/05/04 03:46:57;;;;;;;14.67;8.30;;;4.40;99.90;;;;;;2096042;28;20851;-73
2023/05/04 03:47:58;;;;;;;14.20;7.40;;;4.40;99.90;;;;;;2091638;28;20226;-73
2023/05/04 03:48:59;;;;;;;12.33;7.03;;;4.40;99.90;;;;;;2079512;28;20251;-74
2023/05/04 03:50:00;;;;;;;13.85;7.75;;;4.30;99.90;;;;;;2091217;28;20230;-73
2023/05/04 03:51:01;;;;;;;18.53;8.10;;;4.30;99.90;;;;;;2091853;28;20226;-75
2023/05/04 03:52:01;;;;;;;14.03;8.43;;;4.30;99.90;;;;;;2083493;28;20744;-73
2023/05/04 03:53:02;;;;;;;15.27;7.47;;;4.30;99.90;;;;;;2085062;28;20190;-74
2023/05/04 03:54:03;;;;;;;11.50;7.13;;;4.30;99.90;;;;;;2096084;28;20193;-75
2023/05/04 03:55:04;;;;;;;15.53;7.87;;;4.30;99.90;;;;;;2079517;28;20659;-74
2023/05/04 03:56:05;;;;;;;12.07;7.03;;;4.30;99.90;;;;;;2087764;28;20221;-75
2023/05/04 03:57:06;;;;;;;11.68;7.22;;;4.30;99.90;;;;;;2087853;28;20663;-74
2023/05/04 03:58:06;;;;;;;15.07;7.67;;;4.20;99.90;;;;;;2079825;28;20196;-73
2023/05/04 03:59:07;;;;;;;11.47;6.77;;;4.20;99.90;;;;;;2066948;28;20199;-74
2023/05/04 04:00:10;;;;;;;10.70;6.63;;;4.20;99.90;;;;;;2083170;28;20197;-74
2023/05/04 04:01:11;;;;;;;14.20;7.30;;;4.20;99.90;;;;;;2095502;28;20654;-74
2023/05/04 04:02:12;;;;;;;15.53;8.77;;;4.20;99.90;;;;;;2083885;28;20186;-74
2023/05/04 04:03:13;;;;;;;16.40;9.52;;;4.20;99.90;;;;;;2090684;28;20328;-74
2023/05/04 04:04:14;;;;;;;16.67;9.37;;;4.20;99.90;;;;;;2096435;28;20702;-73
2023/05/04 04:05:14;;;;;;;18.33;10.40;;;4.20;99.90;;;;;;2094626;28;20201;-74
2023/05/04 04:06:16;;;;;;;17.17;10.33;;;4.10;99.90;;;;;;2078457;28;20191;-74
2023/05/04 04:07:17;;;;;;;19.63;11.48;;;4.20;99.90;;;;;;2081017;28;20192;-74
2023/05/04 04:08:19;;;;;;;14.00;8.70;;;4.10;99.90;;;;;;2087431;28;20191;-74
2023/05/04 04:09:20;;;;;;;12.02;7.30;;;4.10;99.90;;;;;;2096042;28;20269;-74
2023/05/04 04:10:20;;;;;;;9.83;6.50;;;4.10;99.90;;;;;;2095245;28;20241;-74
2023/05/04 04:11:21;;;;;;;11.27;6.67;;;4.10;99.90;;;;;;2087588;28;20256;-74
2023/05/04 04:12:22;;;;;;;10.63;6.93;;;4.10;99.90;;;;;;2087056;28;20236;-74
2023/05/04 04:13:22;;;;;;;14.27;7.70;;;4.20;99.90;;;;;;2079447;28;20818;-74
2023/05/04 04:14:23;;;;;;;14.90;9.37;;;4.20;99.90;;;;;;2078254;28;20259;-73
2023/05/04 04:15:24;;;;;;;16.93;10.30;;;4.20;99.90;;;;;;2079076;28;20299;-74
2023/05/04 04:16:25;;;;;;;12.17;8.50;;;4.20;99.90;;;;;;2091043;28;20360;-74
2023/05/04 04:17:25;;;;;;;13.03;8.43;;;4.20;99.90;;;;;;2091578;28;20232;-74
2023/05/04 04:18:29;;;;;;;11.97;7.83;;;4.20;99.90;;;;;;2088012;28;20757;-74
2023/05/04 04:19:29;;;;;;;12.50;7.70;;;4.20;99.90;;;;;;2088636;28;20235;-74
2023/05/04 04:20:31;;;;;;;12.63;8.17;;;4.10;99.90;;;;;;2088361;28;20236;-74
2023/05/04 04:21:34;;;;;;;14.50;10.00;;;4.20;99.90;;;;;;2078724;28;21085;-74
2023/05/04 04:22:37;;;;;;;15.45;9.27;;;4.20;99.90;;;;;;2087209;28;20752;-74
2023/05/04 04:23:38;;;;;;;13.90;9.00;;;4.20;99.90;;;;;;2095171;28;20230;-74
2023/05/04 04:24:39;;;;;;;16.20;9.68;;;4.10;99.90;;;;;;2095180;28;20233;-74
2023/05/04 04:25:40;;;;;;;20.00;11.07;;;4.20;99.90;;;;;;2095766;28;20231;-74
2023/05/04 04:26:41;;;;;;;16.80;9.67;;;4.20;99.90;;;;;;2090915;28;20246;-74
2023/05/04 04:27:42;;;;;;;23.00;11.53;;;4.20;99.90;;;;;;2086752;28;21033;-74
2023/05/04 04:28:43;;;;;;;18.93;11.57;;;4.20;99.90;;;;;;2086679;28;20237;-74
2023/05/04 04:29:44;;;;;;;19.38;11.73;;;4.30;99.90;;;;;;2086965;28;20219;-74
2023/05/04 04:30:45;;;;;;;15.93;9.57;;;4.20;99.90;;;;;;2078644;28;20636;-74
2023/05/04 04:31:46;;;;;;;16.85;9.73;;;4.30;99.90;;;;;;2086879;28;20312;-74
2023/05/04 04:32:48;;;;;;;20.43;10.53;;;4.30;99.90;;;;;;2092957;28;21054;-74
2023/05/04 04:33:50;;;;;;;22.85;12.60;;;4.30;99.90;;;;;;2093350;28;20230;-74
2023/05/04 04:34:52;;;;;;;17.95;11.57;;;4.30;99.90;;;;;;2087036;28;20710;-74
2023/05/04 04:35:52;;;;;;;19.65;12.35;;;4.30;99.90;;;;;;2086701;28;20718;-74
2023/05/04 04:36:53;;;;;;;19.43;12.40;;;4.40;99.90;;;;;;2082184;28;20238;-74
2023/05/04 04:37:54;;;;;;;15.90;10.90;;;4.40;99.90;;;;;;2086391;28;20232;-74
2023/05/04 04:38:56;;;;;;;19.37;10.93;;;4.40;99.90;;;;;;2095125;28;20327;-74
2023/05/04 04:39:56;;;;;;;19.13;11.25;;;4.40;99.90;;;;;;2095191;28;20769;-74
2023/05/04 04:40:57;;;;;;;17.43;10.27;;;4.40;99.90;;;;;;2090283;28;20317;-74
2023/05/04 04:41:58;;;;;;;16.30;9.73;;;4.40;99.90;;;;;;2091861;28;20230;-74
2023/05/04 04:43:01;;;;;;;14.47;9.93;;;4.50;99.90;;;;;;2094679;28;20738;-73
2023/05/04 04:44:02;;;;;;;15.50;9.90;;;4.50;99.90;;;;;;2086222;28;20326;-75
2023/05/04 04:45:04;;;;;;;16.30;10.45;;;4.50;99.90;;;;;;2095342;28;20267;-74
2023/05/04 04:46:05;;;;;;;17.02;10.88;;;4.50;99.90;;;;;;2103302;28;20247;-74
2023/05/04 04:47:06;;;;;;;17.45;10.38;;;4.40;99.90;;;;;;2094848;28;20217;-74
2023/05/04 04:48:07;;;;;;;18.20;11.03;;;4.50;99.90;;;;;;2092358;28;20720;-74
2023/05/04 04:49:08;;;;;;;15.67;10.03;;;4.50;99.90;;;;;;2086997;28;20804;-73
2023/05/04 04:50:10;;;;;;;14.50;9.40;;;4.60;99.90;;;;;;2078138;28;20580;-75
2023/05/04 04:51:11;;;;;;;12.68;8.52;;;4.60;99.90;;;;;;2087258;28;20267;-73
2023/05/04 04:52:11;;;;;;;14.37;9.57;;;4.50;99.90;;;;;;2087143;28;20185;-74
2023/05/04 04:53:12;;;;;;;14.50;8.57;;;4.60;99.90;;;;;;2094845;28;20182;-74
2023/05/04 04:54:13;;;;;;;13.67;8.57;;;4.60;99.90;;;;;;2095221;28;20174;-74
2023/05/04 04:55:15;;;;;;;13.13;8.73;;;4.50;99.90;;;;;;2087034;28;20660;-73
2023/05/04 04:56:17;;;;;;;14.85;9.50;;;4.60;99.90;;;;;;2084445;28;20190;-74
2023/05/04 04:57:18;;;;;;;14.70;9.70;;;4.60;99.90;;;;;;2081659;28;20180;-74
2023/05/04 04:58:19;;;;;;;16.67;9.67;;;4.60;99.90;;;;;;2085696;28;20288;-74
2023/05/04 04:59:23;;;;;;;18.17;10.45;;;4.70;99.90;;;;;;2095142;28;20270;-74
2023/05/04 05:00:25;;;;;;;16.48;8.65;;;4.70;99.90;;;;;;2087796;28;20242;-74
2023/05/04 05:01:26;;;;;;;14.68;9.63;;;4.70;99.90;;;;;;2095280;28;20299;-73
2023/05/04 05:02:27;;;;;;;18.77;9.93;;;4.80;99.90;;;;;;2090862;28;20322;-73
2023/05/04 05:03:27;;;;;;;13.50;9.37;;;4.80;99.90;;;;;;2083098;28;20314;-73
2023/05/04 05:04:29;;;;;;;18.37;10.23;;;4.80;99.90;;;;;;2094985;28;20709;-73
2023/05/04 05:05:30;;;;;;;14.55;9.95;;;4.90;99.90;;;;;;2095114;28;21084;-74
2023/05/04 05:06:30;;;;;;;16.80;10.33;;;5.00;99.90;;;;;;2081619;28;20231;-73
2023/05/04 05:07:31;;;;;;;16.60;10.03;;;5.00;99.90;;;;;;2094692;28;20501;-73
2023/05/04 05:08:32;;;;;;;16.10;10.10;;;5.00;99.90;;;;;;2103313;28;20385;-73
2023/05/04 05:09:34;;;;;;;16.95;9.65;;;5.00;99.90;;;;;;2085827;28;20639;-73
2023/05/04 05:10:35;;;;;;;14.75;9.65;;;5.00;99.90;;;;;;2091048;28;20289;-73
2023/05/04 05:11:35;;;;;;;16.30;9.93;;;5.00;99.90;;;;;;2088229;28;20238;-73
2023/05/04 05:12:37;;;;;;;12.03;8.43;;;5.00;99.90;;;;;;2082424;28;20319;-75
2023/05/04 05:13:38;;;;;;;14.50;10.52;;;5.00;99.90;;;;;;2086853;28;20704;-73
2023/05/04 05:14:41;;;;;;;12.80;9.50;;;5.10;99.90;;;;;;2086775;28;20699;-73
2023/05/04 05:15:42;;;;;;;12.70;8.57;;;5.10;99.90;;;;;;2078790;28;20252;-74
2023/05/04 05:16:44;;;;;;;13.77;8.07;;;5.10;99.90;;;;;;2079101;28;20229;-73
2023/05/04 05:17:44;;;;;;;13.68;8.25;;;5.20;99.90;;;;;;2081509;28;20726;-73
2023/05/04 05:18:45;;;;;;;14.13;8.80;;;5.10;99.90;;;;;;2082299;28;20292;-73
2023/05/04 05:19:46;;;;;;;15.20;9.73;;;5.10;99.90;;;;;;2092657;28;20227;-74
2023/05/04 05:20:48;;;;;;;15.63;9.52;;;5.10;99.90;;;;;;2093054;28;20731;-74
2023/05/04 05:21:49;;;;;;;14.23;8.75;;;5.10;99.90;;;;;;2103575;28;20291;-73
2023/05/04 05:22:50;;;;;;;15.18;9.93;;;5.10;99.90;;;;;;2095105;28;20230;-73